Portada
METAR-TAF:

METAR-TAF

Aeropuertos :

Bergerac, Francia

latitud: 44-49N, longitud: 000-31E, altitud: 51 m

Observación

El informe se hizo hace 41 minutos, a las 15:00 UTC
Viento 5 kt del sureste, variando entre este y sur
Temperatura 17°C
Humedad 39%
Presión 1025 hPa
Visibilidad 10 km o más
sin nubes por debajo de 1500 m y sin presencia de cumulonimbus.

METAR: LFBE 161500Z AUTO 14005KT 100V180 CAVOK 17/03 Q1025 NOSIG

Hora: 16:41 (15:41 UTC)

Pronóstico

El informe se hizo hace 4 horas y 41 minutos, a las 11:00 UTC
Pronóstico válido del 16 a las 12 UTC al 17 a las 12 UTC
Viento 10 kt del sureste
Visibilidad 10 km o más
sin nubes por debajo de 1500 m y sin presencia de cumulonimbus.
Probabilidad 30% :
Temporalmente
del 17 a las 02 UTC al 17 a las 06 UTC
Visibilidad: 3000 m
neblina

TAF: LFBE 161100Z 1612/1712 14010KT CAVOK PROB30 TEMPO 1702/1706 3000 BR

Observaciones y pronósticos meteorológicos de más de 4000 aeropuertos (mensajes METAR y TAF).

Los puntos amarillos y rojos representan las estaciones disponibles.

Ponga el ratón en el punto deseado para ver el nombre de la estación.

Haga clic para ver las observaciones y los pronósticos meteorológicos.

Para cambiar el mapa : haga clic en los botones verdes con una cruz de color negro para hacer un zoom, en el botón verde con un guión para alejar o en las flechas verdes para mapas adyacentes.


METAR-TAF: